Zim Vancouver — A8LK5 — position and weather

sailwx.info

Track history (hours):
 
Tides and Currents Weather Stations Pressure Air Temp Water Temp Dewpoint Dewpoint Depression Visibility Wind Speed Wind Dir Waves Ship Positions

Zim Vancouver

Last reported at 2015-Mar-03 12:33 UTC. Time now 2015-Mar-03 22:37 UTC.
Position N 24°38' E 119°18'.

Length 260 m; draft 9.3 m.

Type: Ship. MMSI: 636013214.

Date/timePositionNaut miles runAvg speedWind from/ knotsBaromVisibWave heightAir tempDewpointWater temp
2015-Mar-03 12:33N 24°38' E 119°18'5413.5
2015-Mar-03 08:33N 24°02' E 118°34'1413.7
2015-Mar-03 07:33N 23°53' E 118°23'1413.4
2015-Mar-03 06:31N 23°45' E 118°11'1813.0
2015-Mar-03 05:08N 23°34' E 117°55'1112.7
2015-Mar-03 04:18N 23°27' E 117°46'5213.8
2015-Mar-03 00:32N 22°55' E 117°02'1414.1
2015-Mar-02 23:31N 22°46' E 116°50'13813.2
2015-Mar-02 13:05N 22°07' E 114°28'713.6
2015-Mar-02 12:33N 22°08' E 114°20'1511.3
2015-Mar-02 11:11N 22°16' E 114°06'15 9.1
2015-Mar-02 09:33N 22°25' E 113°53'7 1.8
2015-Mar-02 05:29N 22°32' E 113°51'0 0.0
2015-Mar-02 04:23N 22°32' E 113°51'0 0.0
2015-Mar-02 03:29N 22°32' E 113°51'0 0.0
2015-Mar-02 01:29N 22°32' E 113°51'7 2.5
2015-Mar-01 22:33N 22°25' E 113°53'9 6.3
2015-Mar-01 21:04N 22°21' E 114°02'611.1
2015-Mar-01 20:33N 22°17' E 114°06'10 9.9
2015-Mar-01 19:33N 22°09' E 114°13'10 8.4
2015-Mar-01 18:22N 22°05' E 114°23'  
2015-Feb-25 13:23N 01°16' E 104°13'1214.0
2015-Feb-25 12:33N 01°14' E 104°01'1413.8
2015-Feb-25 11:31N 01°09' E 103°48'  
Track history (hours):
 
Tides and Currents Weather Stations Pressure Air Temp Water Temp Dewpoint Dewpoint Depression Visibility Wind Speed Wind Dir Waves Ship Positions

Zim Vancouver

Last reported at 2015-Mar-03 12:33 UTC. Time now 2015-Mar-03 22:37 UTC.
Position N 24°38' E 119°18'.

Length 260 m; draft 9.3 m.

Type: Ship. MMSI: 636013214.

Date/timePositionNaut miles runAvg speedWind from/ knotsBaromVisibWave heightAir tempDewpointWater temp
2015-Mar-03 12:33N 24°38' E 119°18'5413.5
2015-Mar-03 08:33N 24°02' E 118°34'1413.7
2015-Mar-03 07:33N 23°53' E 118°23'1413.4
2015-Mar-03 06:31N 23°45' E 118°11'1813.0
2015-Mar-03 05:08N 23°34' E 117°55'1112.7
2015-Mar-03 04:18N 23°27' E 117°46'5213.8
2015-Mar-03 00:32N 22°55' E 117°02'1414.1
2015-Mar-02 23:31N 22°46' E 116°50'13813.2
2015-Mar-02 13:05N 22°07' E 114°28'713.6
2015-Mar-02 12:33N 22°08' E 114°20'1511.3
2015-Mar-02 11:11N 22°16' E 114°06'15 9.1
2015-Mar-02 09:33N 22°25' E 113°53'7 1.8
2015-Mar-02 05:29N 22°32' E 113°51'0 0.0
2015-Mar-02 04:23N 22°32' E 113°51'0 0.0
2015-Mar-02 03:29N 22°32' E 113°51'0 0.0
2015-Mar-02 01:29N 22°32' E 113°51'7 2.5
2015-Mar-01 22:33N 22°25' E 113°53'9 6.3
2015-Mar-01 21:04N 22°21' E 114°02'611.1
2015-Mar-01 20:33N 22°17' E 114°06'10 9.9
2015-Mar-01 19:33N 22°09' E 114°13'10 8.4
2015-Mar-01 18:22N 22°05' E 114°23'  
2015-Feb-25 13:23N 01°16' E 104°13'1214.0
2015-Feb-25 12:33N 01°14' E 104°01'1413.8
2015-Feb-25 11:31N 01°09' E 103°48'  

Dump ship's entire track history